logo
Search for airport 
image banner adimage banner adimage banner ad
image banner ad

EPNL - Lososina Dolna K/Nowego Sacza

Located in , Poland

ICAO - EPNL, IATA -

Data provided by Airmate  

General information

Coordinates: N49°44'43" E20°37'24"
Elevation is 833 feet MSL.
Magnetic variation is 5.0000° East
View others Airports in Lesser Poland

Operational data

Special qualification required
Current time UTC:
Current local time:
Weather at : EPKK - Krakow/Balice ( 70 km )
METAR: EPKK 170000Z 26003KT 0200 R25/0600D FG BKN001 12/12 Q1014
TAF: TAF EPKK 162330Z 1700/1724 VRB02KT 3000 BR NSC BECMG 1700/1703 0100 FG OVC001 BECMG 1703/1706 CAVOK
View NOTAMs / SUP AIP / TFR affecting this airport [VIEW]
Communications frequencies: [VIEW]

Runways:

RWY identifierQFULength (ft)Width (ft)SurfaceLDA (ft)
0442°2723197GRASS2723
22222°2723197GRASS2723

Airport contact information

Address: Poland

Satellite view of EPNL